Bloomington, IN (47408)

04:21 PM EST del 26 novembre 2014 (GMT -0500)
KINBLOOM23 | Change Station
CLOSE
Current Station
Stazione meteo personale
Location: Bloomington, IN
Altitudine: 800 ft
Stazioni meteo nelle vicinanze

Alt. 800 ft 39.15 °N, 86.51 °W | Updated 8 seconds ago

Parzialmente nuvoloso
Parzialmente nuvoloso
38.0 °F
Sembra 38 °F
N
2.0
Vento Variabile Vento da SSE

Oggi
Massima -- | Minima -- °F
--% Possibilità di precip.
Ieri
Massima -- | Minima -- °F
Precip. -- in
7:41 AM 5:24 PM
Luna crescente, 22% visible
Pressione 30.05 in
Visibilità 10.0 miglia
Nuvole Sereno
Raffreddamento del vento 38 °F
Punto di rugiada 28 °F
Umidità 66%
Piovosità 0.00 in
Spessore del manto nevoso Non disponibile.
Raggi UV 1 fuori da 12
Polline .10 fuori da 12
Qualità dell'aria Non disponibile.
Flu Activity Non disponibile.
METAR KBMG 262053Z 00000KT 10SM CLR 03/M04 A3003 RMK AO2 SLP174 T00281039 55017

More Conditions Fewer Conditions

Pressione 30.05 in
Visibilità 10.0 miglia
Nuvole Sereno
Raffreddamento del vento 38 °F
Punto di rugiada 28 °F
Umidità 66%
Piovosità 0.00 in
Spessore del manto nevoso Non disponibile.
Raggi UV 1 fuori da 12
Polline .10 fuori da 12
Qualità dell'aria Non disponibile.
Flu Activity Non disponibile.
METAR KBMG 262053Z 00000KT 10SM CLR 03/M04 A3003 RMK AO2 SLP174 T00281039 55017

More Conditions Fewer Conditions

10-Day Weather Forecast

Almanac

Astronomia

Nov. 26, 2014 Alba Tramonto
Ora attuale
Crepuscolo civile
Crepuscolo nautico
Crepuscolo astronomico
Luna
Estensione della luce visibile
Lunghezza del giorno
Tomorrow will be .
, % of the Moon is Illuminated

Gli estremi di oggi

State Highs State Lows

Community

WunderPhotos

Upload Photos

1,773,872 foto caricate!

WunderBlogs® & News

Nearby

Qualità dell'aria

  Qualità dell'aria Indice AQ Inquinante
Not available.

Profondità neve

Stazione Profondità Altitudine

Attività sismica

Città  Distanza Mag. Data & Ora
Minimo Magnitudo Mostrato è 2.5.

Temperature delle acque costiere

Località Temperatura

Stazioni meteo nelle vicinanze